Wetterdaten: Samstag, 18.02.2012
Datum Zeit Temp. A. Feuchte A. Luftdruck Regen Wind Richtung Richtung Sonnenschein UV Solar Windben
18.02.2012 00:00 3,7 C 90 % 1019,2 hPa 0,0 mm 0,0 km/h (0 Bft) N 0 0 min 0 UV-I 0 W/m 0,0 km/h (0 Bft)
18.02.2012 00:10 3,6 C 90 % 1019,1 hPa 0,0 mm 0,0 km/h (0 Bft) N 0 0 min 0 UV-I 0 W/m 0,0 km/h (0 Bft)
18.02.2012 00:20 3,4 C 90 % 1019,0 hPa 0,0 mm 0,0 km/h (0 Bft) N 0 0 min 0 UV-I 0 W/m 0,0 km/h (0 Bft)
18.02.2012 00:30 3,3 C 90 % 1018,9 hPa 0,0 mm 0,0 km/h (0 Bft) N 0 0 min 0 UV-I 0 W/m 0,0 km/h (0 Bft)
18.02.2012 00:40 3,3 C 91 % 1018,8 hPa 0,0 mm 0,0 km/h (0 Bft) W-SW 247 0 min 0 UV-I 0 W/m 1,6 km/h (1 Bft)
18.02.2012 00:50 3,3 C 91 % 1018,8 hPa 0,0 mm 0,0 km/h (0 Bft) W-SW 247 0 min 0 UV-I 0 W/m 1,6 km/h (1 Bft)
18.02.2012 01:00 3,4 C 91 % 1018,8 hPa 0,0 mm 0,0 km/h (0 Bft) N 0 0 min 0 UV-I 0 W/m 0,0 km/h (0 Bft)
18.02.2012 01:10 3,4 C 91 % 1018,6 hPa 0,0 mm 0,0 km/h (0 Bft) W-SW 247 0 min 0 UV-I 0 W/m 1,6 km/h (1 Bft)
18.02.2012 01:20 3,5 C 91 % 1018,6 hPa 0,0 mm 0,0 km/h (0 Bft) N 0 0 min 0 UV-I 0 W/m 0,0 km/h (0 Bft)
18.02.2012 01:30 3,6 C 91 % 1018,6 hPa 0,0 mm 0,0 km/h (0 Bft) N 0 0 min 0 UV-I 0 W/m 0,0 km/h (0 Bft)
18.02.2012 01:40 3,6 C 91 % 1018,6 hPa 0,0 mm 0,0 km/h (0 Bft) N 0 0 min 0 UV-I 0 W/m 0,0 km/h (0 Bft)
18.02.2012 01:50 3,7 C 91 % 1018,5 hPa 0,0 mm 0,0 km/h (0 Bft) W-SW 247 0 min 0 UV-I 0 W/m 1,6 km/h (1 Bft)
18.02.2012 02:00 3,7 C 91 % 1018,4 hPa 0,0 mm 0,0 km/h (0 Bft) W-SW 247 0 min 0 UV-I 0 W/m 4,8 km/h (1 Bft)
18.02.2012 02:10 3,8 C 91 % 1018,4 hPa 0,0 mm 0,0 km/h (0 Bft) W-SW 247 0 min 0 UV-I 0 W/m 4,8 km/h (1 Bft)
18.02.2012 02:20 3,9 C 92 % 1018,4 hPa 0,0 mm 1,6 km/h (1 Bft) W-SW 247 0 min 0 UV-I 0 W/m 6,4 km/h (2 Bft)
18.02.2012 02:30 4,2 C 92 % 1018,2 hPa 0,0 mm 1,6 km/h (1 Bft) W 270 0 min 0 UV-I 0 W/m 6,4 km/h (2 Bft)
18.02.2012 02:40 4,4 C 92 % 1018,1 hPa 0,0 mm 0,0 km/h (0 Bft) W 270 0 min 0 UV-I 0 W/m 4,8 km/h (1 Bft)
18.02.2012 02:50 4,6 C 92 % 1018,0 hPa 0,0 mm 1,6 km/h (1 Bft) SW 225 0 min 0 UV-I 0 W/m 8,0 km/h (2 Bft)
18.02.2012 03:00 4,8 C 92 % 1017,8 hPa 0,0 mm 3,2 km/h (1 Bft) W-SW 247 0 min 0 UV-I 0 W/m 14,5 km/h (3 Bft)
18.02.2012 03:10 4,9 C 92 % 1017,6 hPa 0,0 mm 3,2 km/h (1 Bft) W-SW 247 0 min 0 UV-I 0 W/m 8,0 km/h (2 Bft)
18.02.2012 03:20 5,1 C 92 % 1017,4 hPa 0,0 mm 3,2 km/h (1 Bft) SW 225 0 min 0 UV-I 0 W/m 8,0 km/h (2 Bft)
18.02.2012 03:30 5,2 C 92 % 1017,2 hPa 0,0 mm 3,2 km/h (1 Bft) SW 225 0 min 0 UV-I 0 W/m 11,3 km/h (2 Bft)
18.02.2012 03:40 5,3 C 92 % 1017,1 hPa 0,0 mm 3,2 km/h (1 Bft) SW 225 0 min 0 UV-I 0 W/m 9,7 km/h (2 Bft)
18.02.2012 03:50 5,3 C 92 % 1017,1 hPa 0,0 mm 1,6 km/h (1 Bft) SW 225 0 min 0 UV-I 0 W/m 11,3 km/h (2 Bft)
18.02.2012 04:00 5,3 C 92 % 1016,8 hPa 0,0 mm 1,6 km/h (1 Bft) SW 225 0 min 0 UV-I 0 W/m 9,7 km/h (2 Bft)
18.02.2012 04:10 5,3 C 92 % 1016,8 hPa 0,0 mm 1,6 km/h (1 Bft) SW 225 0 min 0 UV-I 0 W/m 8,0 km/h (2 Bft)
18.02.2012 04:20 5,3 C 92 % 1016,8 hPa 0,0 mm 3,2 km/h (1 Bft) S-SW 202 0 min 0 UV-I 0 W/m 14,5 km/h (3 Bft)
18.02.2012 04:30 5,3 C 92 % 1016,7 hPa 0,0 mm 6,4 km/h (2 Bft) W-SW 247 0 min 0 UV-I 0 W/m 17,7 km/h (3 Bft)
18.02.2012 04:40 5,4 C 92 % 1016,6 hPa 0,0 mm 4,8 km/h (1 Bft) W-SW 247 0 min 0 UV-I 0 W/m 16,1 km/h (3 Bft)
18.02.2012 04:50 5,4 C 92 % 1016,5 hPa 0,0 mm 3,2 km/h (1 Bft) SW 225 0 min 0 UV-I 0 W/m 11,3 km/h (2 Bft)
18.02.2012 05:00 5,4 C 92 % 1016,6 hPa 0,0 mm 3,2 km/h (1 Bft) SW 225 0 min 0 UV-I 0 W/m 12,9 km/h (3 Bft)
18.02.2012 05:10 5,4 C 92 % 1016,5 hPa 0,0 mm 4,8 km/h (1 Bft) SW 225 0 min 0 UV-I 0 W/m 20,9 km/h (4 Bft)
18.02.2012 05:20 5,4 C 92 % 1016,4 hPa 0,0 mm 3,2 km/h (1 Bft) SW 225 0 min 0 UV-I 0 W/m 11,3 km/h (2 Bft)
18.02.2012 05:30 5,4 C 92 % 1016,2 hPa 0,0 mm 1,6 km/h (1 Bft) SW 225 0 min 0 UV-I 0 W/m 8,0 km/h (2 Bft)
18.02.2012 05:40 5,5 C 92 % 1016,5 hPa 0,0 mm 1,6 km/h (1 Bft) SW 225 0 min 0 UV-I 0 W/m 8,0 km/h (2 Bft)
18.02.2012 05:50 5,4 C 92 % 1016,2 hPa 0,0 mm 3,2 km/h (1 Bft) S-SW 202 0 min 0 UV-I 0 W/m 9,7 km/h (2 Bft)
18.02.2012 06:00 5,5 C 92 % 1016,0 hPa 0,0 mm 3,2 km/h (1 Bft) SW 225 0 min 0 UV-I 0 W/m 14,5 km/h (3 Bft)
18.02.2012 06:10 5,5 C 92 % 1015,9 hPa 0,0 mm 1,6 km/h (1 Bft) SW 225 0 min 0 UV-I 0 W/m 11,3 km/h (2 Bft)
18.02.2012 06:20 5,5 C 92 % 1015,9 hPa 0,0 mm 3,2 km/h (1 Bft) S-SW 202 0 min 0 UV-I 0 W/m 16,1 km/h (3 Bft)
18.02.2012 06:30 5,5 C 92 % 1015,9 hPa 0,0 mm 1,6 km/h (1 Bft) SW 225 0 min 0 UV-I 0 W/m 8,0 km/h (2 Bft)
18.02.2012 06:40 5,6 C 92 % 1015,9 hPa 0,0 mm 3,2 km/h (1 Bft) SW 225 0 min 0 UV-I 0 W/m 11,3 km/h (2 Bft)
18.02.2012 06:50 5,6 C 92 % 1015,8 hPa 0,0 mm 3,2 km/h (1 Bft) SW 225 0 min 0 UV-I 0 W/m 9,7 km/h (2 Bft)
18.02.2012 07:00 5,6 C 92 % 1015,8 hPa 0,0 mm 1,6 km/h (1 Bft) SW 225 0 min 0 UV-I 0 W/m 6,4 km/h (2 Bft)
18.02.2012 07:10 5,6 C 92 % 1015,7 hPa 0,0 mm 1,6 km/h (1 Bft) SW 225 0 min 0 UV-I 0 W/m 4,8 km/h (1 Bft)
18.02.2012 07:20 5,7 C 92 % 1015,5 hPa 0,0 mm 1,6 km/h (1 Bft) S-SW 202 0 min 0 UV-I 0 W/m 8,0 km/h (2 Bft)
18.02.2012 07:30 5,6 C 92 % 1015,5 hPa 0,0 mm 1,6 km/h (1 Bft) S-SW 202 0 min 0 UV-I 0 W/m 6,4 km/h (2 Bft)
18.02.2012 07:40 5,6 C 92 % 1015,4 hPa 0,0 mm 3,2 km/h (1 Bft) S-SW 202 0 min 0 UV-I 0 W/m 9,7 km/h (2 Bft)
18.02.2012 07:50 5,5 C 92 % 1015,5 hPa 0,0 mm 3,2 km/h (1 Bft) S-SW 202 0 min 0 UV-I 5 W/m 11,3 km/h (2 Bft)
18.02.2012 08:00 5,4 C 92 % 1015,4 hPa 0,0 mm 3,2 km/h (1 Bft) S-SW 202 0 min 0 UV-I 11 W/m 9,7 km/h (2 Bft)
18.02.2012 08:10 5,4 C 92 % 1015,2 hPa 0,0 mm 1,6 km/h (1 Bft) S-SW 202 0 min 0 UV-I 19 W/m 9,7 km/h (2 Bft)
18.02.2012 08:20 5,4 C 92 % 1015,0 hPa 0,0 mm 1,6 km/h (1 Bft) S-SW 202 0 min 0 UV-I 19 W/m 8,0 km/h (2 Bft)
18.02.2012 08:30 5,5 C 92 % 1015,0 hPa 0,0 mm 3,2 km/h (1 Bft) S-SW 202 0 min 0 UV-I 16 W/m 11,3 km/h (2 Bft)
18.02.2012 08:40 5,6 C 92 % 1015,1 hPa 0,0 mm 4,8 km/h (1 Bft) SW 225 0 min 0 UV-I 30 W/m 17,7 km/h (3 Bft)
18.02.2012 08:50 5,7 C 92 % 1015,0 hPa 0,0 mm 4,8 km/h (1 Bft) SW 225 0 min 0 UV-I 30 W/m 16,1 km/h (3 Bft)
18.02.2012 09:00 5,7 C 92 % 1015,0 hPa 0,0 mm 1,6 km/h (1 Bft) S 180 0 min 0 UV-I 47 W/m 11,3 km/h (2 Bft)
18.02.2012 09:10 5,8 C 92 % 1014,9 hPa 0,0 mm 3,2 km/h (1 Bft) S-SW 202 0 min 0 UV-I 53 W/m 14,5 km/h (3 Bft)
18.02.2012 09:20 5,9 C 92 % 1014,7 hPa 0,0 mm 1,6 km/h (1 Bft) S-SW 202 0 min 0 UV-I 42 W/m 9,7 km/h (2 Bft)
18.02.2012 09:30 6,0 C 92 % 1014,6 hPa 0,0 mm 1,6 km/h (1 Bft) S 180 0 min 0 UV-I 56 W/m 11,3 km/h (2 Bft)
18.02.2012 09:40 6,1 C 92 % 1014,5 hPa 0,0 mm 1,6 km/h (1 Bft) SW 225 0 min 0 UV-I 65 W/m 8,0 km/h (2 Bft)
18.02.2012 09:50 6,2 C 92 % 1014,3 hPa 0,0 mm 1,6 km/h (1 Bft) S-SW 202 0 min 1 UV-I 63 W/m 14,5 km/h (3 Bft)
18.02.2012 10:00 6,3 C 91 % 1014,2 hPa 0,0 mm 1,6 km/h (1 Bft) S-SW 202 0 min 1 UV-I 100 W/m 9,7 km/h (2 Bft)
18.02.2012 10:10 6,4 C 91 % 1014,2 hPa 0,0 mm 3,2 km/h (1 Bft) S-SW 202 0 min 1 UV-I 91 W/m 9,7 km/h (2 Bft)
18.02.2012 10:20 6,5 C 91 % 1014,1 hPa 0,0 mm 3,2 km/h (1 Bft) S-SW 202 0 min 0 UV-I 39 W/m 11,3 km/h (2 Bft)
18.02.2012 10:30 6,6 C 91 % 1014,0 hPa 0,0 mm 3,2 km/h (1 Bft) S-SW 202 0 min 0 UV-I 60 W/m 11,3 km/h (2 Bft)
18.02.2012 10:40 6,7 C 91 % 1013,9 hPa 0,0 mm 3,2 km/h (1 Bft) SW 225 0 min 1 UV-I 120 W/m 11,3 km/h (2 Bft)
18.02.2012 10:50 6,8 C 91 % 1013,9 hPa 0,0 mm 4,8 km/h (1 Bft) SW 225 0 min 1 UV-I 83 W/m 12,9 km/h (3 Bft)
18.02.2012 11:00 6,9 C 91 % 1013,9 hPa 0,0 mm 3,2 km/h (1 Bft) SW 225 0 min 1 UV-I 70 W/m 16,1 km/h (3 Bft)
18.02.2012 11:10 7,1 C 90 % 1014,0 hPa 0,0 mm 4,8 km/h (1 Bft) SW 225 0 min 1 UV-I 65 W/m 17,7 km/h (3 Bft)
18.02.2012 11:20 7,1 C 90 % 1014,0 hPa 0,0 mm 4,8 km/h (1 Bft) SW 225 0 min 1 UV-I 70 W/m 20,9 km/h (4 Bft)
18.02.2012 11:30 7,2 C 90 % 1014,0 hPa 0,0 mm 4,8 km/h (1 Bft) SW 225 0 min 0 UV-I 49 W/m 19,3 km/h (3 Bft)
18.02.2012 11:40 7,2 C 89 % 1014,0 hPa 0,0 mm 4,8 km/h (1 Bft) SW 225 0 min 1 UV-I 63 W/m 16,1 km/h (3 Bft)
18.02.2012 11:50 7,2 C 89 % 1013,9 hPa 0,0 mm 6,4 km/h (2 Bft) SW 225 0 min 1 UV-I 74 W/m 17,7 km/h (3 Bft)
18.02.2012 12:00 7,3 C 89 % 1013,7 hPa 0,0 mm 6,4 km/h (2 Bft) SW 225 0 min 1 UV-I 70 W/m 17,7 km/h (3 Bft)
18.02.2012 12:10 7,3 C 88 % 1013,6 hPa 0,0 mm 4,8 km/h (1 Bft) SW 225 0 min 1 UV-I 67 W/m 17,7 km/h (3 Bft)
18.02.2012 12:20 7,4 C 88 % 1013,4 hPa 0,0 mm 4,8 km/h (1 Bft) SW 225 0 min 1 UV-I 70 W/m 17,7 km/h (3 Bft)
18.02.2012 12:30 7,5 C 88 % 1013,3 hPa 0,0 mm 6,4 km/h (2 Bft) W-SW 247 0 min 1 UV-I 65 W/m 24,1 km/h (4 Bft)
18.02.2012 12:40 7,6 C 88 % 1013,2 hPa 0,0 mm 6,4 km/h (2 Bft) SW 225 0 min 1 UV-I 56 W/m 20,9 km/h (4 Bft)
18.02.2012 12:50 7,7 C 87 % 1013,2 hPa 0,0 mm 8,0 km/h (2 Bft) W-SW 247 0 min 0 UV-I 39 W/m 22,5 km/h (4 Bft)
18.02.2012 13:00 7,7 C 87 % 1013,2 hPa 0,0 mm 9,7 km/h (2 Bft) W-SW 247 0 min 0 UV-I 32 W/m 22,5 km/h (4 Bft)
18.02.2012 13:10 7,7 C 87 % 1013,1 hPa 0,0 mm 11,3 km/h (2 Bft) W-SW 247 0 min 0 UV-I 26 W/m 32,2 km/h (5 Bft)
18.02.2012 13:20 7,7 C 87 % 1013,1 hPa 0,0 mm 11,3 km/h (2 Bft) W-SW 247 0 min 0 UV-I 35 W/m 29,0 km/h (5 Bft)
18.02.2012 13:30 7,7 C 87 % 1013,0 hPa 0,0 mm 9,7 km/h (2 Bft) W-SW 247 0 min 0 UV-I 35 W/m 22,5 km/h (4 Bft)
18.02.2012 13:40 7,7 C 87 % 1012,8 hPa 0,0 mm 8,0 km/h (2 Bft) W-SW 247 0 min 1 UV-I 74 W/m 25,7 km/h (4 Bft)
18.02.2012 13:50 7,6 C 87 % 1012,6 hPa 0,0 mm 9,7 km/h (2 Bft) SW 225 0 min 1 UV-I 74 W/m 24,1 km/h (4 Bft)
18.02.2012 14:00 7,6 C 88 % 1012,6 hPa 0,0 mm 6,4 km/h (2 Bft) W-SW 247 0 min 1 UV-I 84 W/m 17,7 km/h (3 Bft)
18.02.2012 14:10 7,6 C 88 % 1012,4 hPa 0,0 mm 4,8 km/h (1 Bft) S-SW 202 0 min 1 UV-I 86 W/m 17,7 km/h (3 Bft)
18.02.2012 14:20 7,6 C 88 % 1012,1 hPa 0,0 mm 4,8 km/h (1 Bft) SW 225 0 min 0 UV-I 54 W/m 14,5 km/h (3 Bft)
18.02.2012 14:30 7,6 C 88 % 1012,0 hPa 0,0 mm 4,8 km/h (1 Bft) S-SW 202 0 min 1 UV-I 67 W/m 17,7 km/h (3 Bft)
18.02.2012 14:40 7,7 C 88 % 1011,8 hPa 0,0 mm 4,8 km/h (1 Bft) SW 225 0 min 0 UV-I 51 W/m 16,1 km/h (3 Bft)
18.02.2012 14:50 7,7 C 87 % 1011,6 hPa 0,0 mm 4,8 km/h (1 Bft) S-SW 202 0 min 0 UV-I 30 W/m 17,7 km/h (3 Bft)
18.02.2012 15:00 7,7 C 87 % 1011,5 hPa 0,0 mm 6,4 km/h (2 Bft) SW 225 0 min 0 UV-I 63 W/m 20,9 km/h (4 Bft)
18.02.2012 15:10 7,7 C 87 % 1011,4 hPa 0,0 mm 6,4 km/h (2 Bft) SW 225 0 min 0 UV-I 56 W/m 22,5 km/h (4 Bft)
18.02.2012 15:20 7,8 C 86 % 1011,3 hPa 0,0 mm 6,4 km/h (2 Bft) SW 225 0 min 0 UV-I 30 W/m 17,7 km/h (3 Bft)
18.02.2012 15:30 7,8 C 86 % 1011,2 hPa 0,0 mm 4,8 km/h (1 Bft) SW 225 0 min 0 UV-I 33 W/m 20,9 km/h (4 Bft)
18.02.2012 15:40 7,8 C 85 % 1010,9 hPa 0,0 mm 4,8 km/h (1 Bft) SW 225 0 min 0 UV-I 32 W/m 16,1 km/h (3 Bft)
18.02.2012 15:50 7,9 C 85 % 1010,8 hPa 0,0 mm 4,8 km/h (1 Bft) SW 225 0 min 0 UV-I 19 W/m 16,1 km/h (3 Bft)
18.02.2012 16:00 7,9 C 85 % 1010,7 hPa 0,0 mm 4,8 km/h (1 Bft) SW 225 0 min 0 UV-I 23 W/m 17,7 km/h (3 Bft)
18.02.2012 16:10 7,9 C 84 % 1010,6 hPa 0,0 mm 4,8 km/h (1 Bft) SW 225 0 min 0 UV-I 32 W/m 17,7 km/h (3 Bft)
18.02.2012 16:20 8,0 C 84 % 1010,6 hPa 0,0 mm 8,0 km/h (2 Bft) SW 225 0 min 0 UV-I 39 W/m 24,1 km/h (4 Bft)
18.02.2012 16:30 8,1 C 83 % 1010,4 hPa 0,0 mm 6,4 km/h (2 Bft) SW 225 0 min 0 UV-I 42 W/m 17,7 km/h (3 Bft)
18.02.2012 16:40 8,2 C 83 % 1010,2 hPa 0,0 mm 4,8 km/h (1 Bft) S-SW 202 0 min 0 UV-I 23 W/m 16,1 km/h (3 Bft)
18.02.2012 16:50 8,2 C 83 % 1010,2 hPa 0,0 mm 4,8 km/h (1 Bft) SW 225 0 min 0 UV-I 14 W/m 19,3 km/h (3 Bft)
18.02.2012 17:00 8,2 C 83 % 1009,9 hPa 0,0 mm 4,8 km/h (1 Bft) SW 225 0 min 0 UV-I 12 W/m 17,7 km/h (3 Bft)
18.02.2012 17:10 8,2 C 83 % 1009,6 hPa 0,0 mm 4,8 km/h (1 Bft) S-SW 202 0 min 0 UV-I 9 W/m 16,1 km/h (3 Bft)
18.02.2012 17:20 8,1 C 83 % 1009,5 hPa 0,0 mm 4,8 km/h (1 Bft) SW 225 0 min 0 UV-I 5 W/m 14,5 km/h (3 Bft)
18.02.2012 17:30 8,1 C 83 % 1009,4 hPa 0,0 mm 6,4 km/h (2 Bft) SW 225 0 min 0 UV-I 5 W/m 16,1 km/h (3 Bft)
18.02.2012 17:40 8,1 C 83 % 1009,3 hPa 0,0 mm 6,4 km/h (2 Bft) SW 225 0 min 0 UV-I 0 W/m 19,3 km/h (3 Bft)
18.02.2012 17:50 8,0 C 83 % 1009,3 hPa 0,0 mm 6,4 km/h (2 Bft) SW 225 0 min 0 UV-I 0 W/m 19,3 km/h (3 Bft)
18.02.2012 18:00 8,0 C 83 % 1009,3 hPa 0,0 mm 4,8 km/h (1 Bft) S-SW 202 0 min 0 UV-I 0 W/m 16,1 km/h (3 Bft)
18.02.2012 18:10 7,9 C 83 % 1009,2 hPa 0,0 mm 6,4 km/h (2 Bft) SW 225 0 min 0 UV-I 0 W/m 16,1 km/h (3 Bft)
18.02.2012 18:20 7,9 C 83 % 1009,1 hPa 0,0 mm 4,8 km/h (1 Bft) SW 225 0 min 0 UV-I 0 W/m 16,1 km/h (3 Bft)
18.02.2012 18:30 7,8 C 84 % 1009,0 hPa 0,0 mm 6,4 km/h (2 Bft) SW 225 0 min 0 UV-I 0 W/m 17,7 km/h (3 Bft)
18.02.2012 18:40 7,8 C 84 % 1008,9 hPa 0,0 mm 6,4 km/h (2 Bft) SW 225 0 min 0 UV-I 0 W/m 19,3 km/h (3 Bft)
18.02.2012 18:50 7,7 C 84 % 1008,9 hPa 0,0 mm 4,8 km/h (1 Bft) W-SW 247 0 min 0 UV-I 0 W/m 17,7 km/h (3 Bft)
18.02.2012 19:00 7,7 C 84 % 1008,9 hPa 0,0 mm 6,4 km/h (2 Bft) SW 225 0 min 0 UV-I 0 W/m 16,1 km/h (3 Bft)
18.02.2012 19:10 7,7 C 84 % 1008,6 hPa 0,0 mm 6,4 km/h (2 Bft) SW 225 0 min 0 UV-I 0 W/m 17,7 km/h (3 Bft)
18.02.2012 19:20 7,7 C 84 % 1008,3 hPa 0,0 mm 6,4 km/h (2 Bft) SW 225 0 min 0 UV-I 0 W/m 16,1 km/h (3 Bft)
18.02.2012 19:30 7,6 C 85 % 1008,2 hPa 0,0 mm 6,4 km/h (2 Bft) SW 225 0 min 0 UV-I 0 W/m 17,7 km/h (3 Bft)
18.02.2012 19:40 7,6 C 85 % 1008,2 hPa 0,0 mm 6,4 km/h (2 Bft) S-SW 202 0 min 0 UV-I 0 W/m 20,9 km/h (4 Bft)
18.02.2012 19:50 7,7 C 85 % 1008,1 hPa 0,0 mm 6,4 km/h (2 Bft) SW 225 0 min 0 UV-I 0 W/m 19,3 km/h (3 Bft)
18.02.2012 20:00 7,6 C 85 % 1008,2 hPa 0,0 mm 6,4 km/h (2 Bft) S-SW 202 0 min 0 UV-I 0 W/m 19,3 km/h (3 Bft)
18.02.2012 20:10 7,6 C 85 % 1008,0 hPa 0,0 mm 6,4 km/h (2 Bft) S-SW 202 0 min 0 UV-I 0 W/m 17,7 km/h (3 Bft)
18.02.2012 20:20 7,5 C 85 % 1007,9 hPa 0,0 mm 6,4 km/h (2 Bft) SW 225 0 min 0 UV-I 0 W/m 19,3 km/h (3 Bft)
18.02.2012 20:30 7,4 C 85 % 1007,7 hPa 0,0 mm 6,4 km/h (2 Bft) SW 225 0 min 0 UV-I 0 W/m 19,3 km/h (3 Bft)
18.02.2012 20:40 7,3 C 85 % 1007,7 hPa 0,0 mm 4,8 km/h (1 Bft) S-SW 202 0 min 0 UV-I 0 W/m 19,3 km/h (3 Bft)
18.02.2012 20:50 7,3 C 85 % 1007,6 hPa 0,0 mm 3,2 km/h (1 Bft) SW 225 0 min 0 UV-I 0 W/m 11,3 km/h (2 Bft)
18.02.2012 21:00 7,2 C 85 % 1007,5 hPa 0,0 mm 4,8 km/h (1 Bft) S-SW 202 0 min 0 UV-I 0 W/m 17,7 km/h (3 Bft)
18.02.2012 21:10 7,1 C 85 % 1007,5 hPa 0,0 mm 4,8 km/h (1 Bft) SW 225 0 min 0 UV-I 0 W/m 17,7 km/h (3 Bft)
18.02.2012 21:20 7,1 C 86 % 1007,4 hPa 0,0 mm 4,8 km/h (1 Bft) S-SW 202 0 min 0 UV-I 0 W/m 14,5 km/h (3 Bft)
18.02.2012 21:30 7,0 C 86 % 1007,1 hPa 0,0 mm 4,8 km/h (1 Bft) SW 225 0 min 0 UV-I 0 W/m 17,7 km/h (3 Bft)
18.02.2012 21:40 6,9 C 86 % 1007,0 hPa 0,0 mm 6,4 km/h (2 Bft) S-SW 202 0 min 0 UV-I 0 W/m 16,1 km/h (3 Bft)
18.02.2012 21:50 6,9 C 86 % 1006,9 hPa 0,0 mm 6,4 km/h (2 Bft) S-SW 202 0 min 0 UV-I 0 W/m 17,7 km/h (3 Bft)
18.02.2012 22:00 6,9 C 86 % 1006,8 hPa 0,0 mm 6,4 km/h (2 Bft) SW 225 0 min 0 UV-I 0 W/m 17,7 km/h (3 Bft)
18.02.2012 22:10 6,9 C 85 % 1006,8 hPa 0,0 mm 4,8 km/h (1 Bft) SW 225 0 min 0 UV-I 0 W/m 22,5 km/h (4 Bft)
18.02.2012 22:20 7,0 C 85 % 1006,7 hPa 0,0 mm 6,4 km/h (2 Bft) W-SW 247 0 min 0 UV-I 0 W/m 19,3 km/h (3 Bft)
18.02.2012 22:30 7,0 C 85 % 1006,5 hPa 0,0 mm 4,8 km/h (1 Bft) SW 225 0 min 0 UV-I 0 W/m 11,3 km/h (2 Bft)
18.02.2012 22:40 7,0 C 85 % 1006,4 hPa 0,0 mm 6,4 km/h (2 Bft) SW 225 0 min 0 UV-I 0 W/m 20,9 km/h (4 Bft)
18.02.2012 22:50 7,1 C 85 % 1006,4 hPa 0,0 mm 6,4 km/h (2 Bft) SW 225 0 min 0 UV-I 0 W/m 16,1 km/h (3 Bft)
18.02.2012 23:00 7,1 C 85 % 1006,4 hPa 0,0 mm 4,8 km/h (1 Bft) S-SW 202 0 min 0 UV-I 0 W/m 17,7 km/h (3 Bft)
18.02.2012 23:10 7,1 C 85 % 1006,2 hPa 0,0 mm 4,8 km/h (1 Bft) SW 225 0 min 0 UV-I 0 W/m 16,1 km/h (3 Bft)
18.02.2012 23:20 7,1 C 85 % 1006,0 hPa 0,0 mm 8,0 km/h (2 Bft) SW 225 0 min 0 UV-I 0 W/m 22,5 km/h (4 Bft)
18.02.2012 23:30 7,1 C 85 % 1005,9 hPa 0,0 mm 8,0 km/h (2 Bft) S-SW 202 0 min 0 UV-I 0 W/m 22,5 km/h (4 Bft)
18.02.2012 23:40 7,2 C 85 % 1005,8 hPa 0,0 mm 6,4 km/h (2 Bft) S-SW 202 0 min 0 UV-I 0 W/m 19,3 km/h (3 Bft)
18.02.2012 23:50 7,1 C 85 % 1005,7 hPa 0,0 mm 4,8 km/h (1 Bft) W-SW 247 0 min 0 UV-I 0 W/m 14,5 km/h (3 Bft)
_ Min-Zeit 00:30 16:30 23:50 - 00:00 - - - - - 00:00
Minimum _ 3,3 C 83 % 1005,7 hPa - 0,0 km/h (0 Bft) - - - - - 0,0 km/h (0 Bft)
_ Max-Zeit 16:30 02:20 00:00 00:00 13:10 - - 00:00 10:40 10:40 13:10
Maximum _ 8,2 C 92 % 1019,2 hPa 0,0 mm 11,3 km/h
W-SW (2 Bft)
- - 0 min 1 UV-I 120 W/m 32,2 km/h
W (5 Bft)
Durchschnitt _ 6,4 C 88 % 1012,9 hPa #0,0 mm 4,2 km/h (1 Bft) SW - #0 min. 1 UV-I 47 W/m 14,1 km/h (3 Bft)